Terminal Aerodrome Forecast
Issued by NWS

Home | Current Version | Previous Version | Graphics & Text | Print | Product List | Glossary On
Versions: 1 2 3 4 5 6 7 8 9 10 11 12 13 14 15 16 17
639
FTUS43 KMPX 270154 AAA
TAFAXN
TAF AMD
KAXN 270154Z 2702/2724 36005KT P6SM SCT025 BKN050
     FM270500 VRB03KT P6SM SCT025 OVC050
      TEMPO 2709/2713 6SM BR OVC025
     FM271400 VRB04KT P6SM SCT030 OVC100
     FM272200 01005KT P6SM BKN200=

USA.gov is the U.S. government's official web portal to all federal, state and local government web resources and services.